Terminal Aerodrome Forecast
Issued by NWS Paducah, KY

Home | Current Version | Previous Version | Text Only | Print | Product List | Glossary On
Versions: 1 2 3 4 5 6 7 8 9 10 11 12 13 14 15 16 17
309
FTUS43 KPAH 112339
TAFEVV
TAF
KEVV 112339Z 1200/1224 03003KT P6SM FEW060 BKN130
     FM120600 08003KT P6SM OVC070
     FM121230 27002KT P6SM -SN BKN015 OVC035
     FM121600 33006KT P6SM OVC022=

USA.gov is the U.S. government's official web portal to all federal, state and local government web resources and services.